createdAt,value
2018-04-11T00:00:59.397Z,75.73
2018-04-11T00:01:59.380Z,75.93
2018-04-11T00:02:59.366Z,75.64
2018-04-11T00:03:59.354Z,76.02
2018-04-11T00:04:59.340Z,75.64
2018-04-11T00:05:59.327Z,75.73
2018-04-11T00:06:59.317Z,75.73
2018-04-11T00:07:59.301Z,75.93
2018-04-11T00:08:59.316Z,76.21
2018-04-11T00:09:59.295Z,76.31
2018-04-11T00:10:59.255Z,76.02
2018-04-11T00:11:59.245Z,75.73
2018-04-11T00:12:59.229Z,75.73
2018-04-11T00:13:59.215Z,76.02
2018-04-11T00:14:59.207Z,75.83
2018-04-11T00:15:59.186Z,76.02
2018-04-11T00:16:59.177Z,76.12
2018-04-11T00:17:59.161Z,76.92
2018-04-11T00:18:59.148Z,77.17
2018-04-11T00:19:59.131Z,76.89
2018-04-11T00:20:59.117Z,76.89
2018-04-11T00:21:59.106Z,77.46
2018-04-11T00:22:59.093Z,78.03
2018-04-11T00:23:59.077Z,78.42
2018-04-11T00:24:59.160Z,78.80
2018-04-11T00:25:59.062Z,78.70
2018-04-11T00:26:59.043Z,78.89
2018-04-11T00:27:59.036Z,78.70
2018-04-11T00:28:59.006Z,78.51
2018-04-11T00:29:58.996Z,78.51
2018-04-11T00:30:58.991Z,78.51
2018-04-11T00:31:58.960Z,79.28
2018-04-11T00:32:58.950Z,79.66
2018-04-11T00:33:58.932Z,79.28
2018-04-11T00:34:58.916Z,79.37
2018-04-11T00:35:58.907Z,80.14
2018-04-11T00:36:58.888Z,80.24
2018-04-11T00:37:58.876Z,79.85
2018-04-11T00:38:58.861Z,80.33
2018-04-11T00:39:58.845Z,80.96
2018-04-11T00:40:58.910Z,81.34
2018-04-11T00:41:58.817Z,81.77
2018-04-11T00:42:58.805Z,81.67
2018-04-11T00:43:58.794Z,81.54
2018-04-11T00:44:58.779Z,82.30
2018-04-11T00:45:58.759Z,82.49
2018-04-11T00:46:58.748Z,82.78
2018-04-11T00:47:58.734Z,83.06
2018-04-11T00:48:58.717Z,83.26
2018-04-11T00:49:58.705Z,82.59
2018-04-11T00:50:58.686Z,83.16
2018-04-11T00:51:58.674Z,83.26
2018-04-11T00:52:58.663Z,83.36
2018-04-11T00:53:58.662Z,83.36
2018-04-11T00:54:58.628Z,83.36
2018-04-11T00:55:58.615Z,83.54
2018-04-11T00:56:58.602Z,83.16
2018-04-11T00:57:58.588Z,83.06
2018-04-11T00:58:58.572Z,83.06
2018-04-11T00:59:58.563Z,83.64
2018-04-11T01:00:58.544Z,83.64
2018-04-11T01:01:58.614Z,83.64
2018-04-11T01:02:58.516Z,83.22
2018-04-11T01:03:58.500Z,84.36
2018-04-11T01:04:58.503Z,84.17
2018-04-11T01:05:58.474Z,84.36
2018-04-11T01:06:58.452Z,84.94
2018-04-11T01:07:58.445Z,83.89
2018-04-11T01:08:58.423Z,83.69
2018-04-11T01:09:58.414Z,83.69
2018-04-11T01:10:58.393Z,83.98
2018-04-11T01:11:58.388Z,84.46
2018-04-11T01:12:58.408Z,83.69
2018-04-11T01:13:58.349Z,83.69
2018-04-11T01:14:58.407Z,83.69
2018-04-11T01:15:58.320Z,83.98
2018-04-11T01:16:58.307Z,84.84
2018-04-11T01:17:58.292Z,84.55
2018-04-11T01:18:58.279Z,85.03
2018-04-11T01:19:58.262Z,84.94
2018-04-11T01:20:58.264Z,84.55
2018-04-11T01:21:58.240Z,84.94
2018-04-11T01:22:58.238Z,84.65
2018-04-11T01:23:58.210Z,84.65
2018-04-11T01:24:58.187Z,84.84
2018-04-11T01:25:58.170Z,84.65
2018-04-11T01:26:58.164Z,84.55
2018-04-11T01:27:58.147Z,84.55
2018-04-11T01:28:58.127Z,84.46
2018-04-11T01:29:58.114Z,84.36
2018-04-11T01:30:58.259Z,84.46
2018-04-11T01:31:58.088Z,84.65
2018-04-11T01:32:58.069Z,84.46
2018-04-11T01:33:58.060Z,84.55
2018-04-11T01:34:58.038Z,84.36
2018-04-11T01:35:58.028Z,85.09
2018-04-11T01:36:58.011Z,84.89
2018-04-11T01:37:57.999Z,85.57
2018-04-11T01:38:57.978Z,85.38
2018-04-11T01:39:57.973Z,85.75
2018-04-11T01:40:57.949Z,85.94
2018-04-11T01:41:57.955Z,85.75
2018-04-11T01:42:57.918Z,85.94
2018-04-11T01:43:57.904Z,85.85
2018-04-11T01:44:57.886Z,86.43
2018-04-11T01:45:57.878Z,86.80
2018-04-11T01:46:57.887Z,86.47
2018-04-11T01:47:57.845Z,87.09
2018-04-11T01:48:57.837Z,86.80
2018-04-11T01:49:57.866Z,86.33
2018-04-11T01:50:57.800Z,86.14
2018-04-11T01:51:57.799Z,85.85
2018-04-11T01:52:57.769Z,86.14
2018-04-11T01:53:57.755Z,86.04
2018-04-11T01:54:57.740Z,85.75
2018-04-11T01:55:57.724Z,85.66
2018-04-11T01:56:57.719Z,85.85
2018-04-11T01:57:57.694Z,85.38
2018-04-11T01:58:57.678Z,85.57
2018-04-11T01:59:57.664Z,84.99
2018-04-11T02:00:57.649Z,85.57
2018-04-11T02:01:57.635Z,85.38
2018-04-11T02:02:57.713Z,84.99
2018-04-11T02:03:57.603Z,85.09
2018-04-11T02:04:57.587Z,85.09
2018-04-11T02:05:57.575Z,85.94
2018-04-11T02:06:57.561Z,85.75
2018-04-11T02:07:57.544Z,85.66
2018-04-11T02:08:57.529Z,85.71
2018-04-11T02:09:57.515Z,86.19
2018-04-11T02:10:57.602Z,85.81
2018-04-11T02:11:57.483Z,86.10
2018-04-11T02:12:57.465Z,86.38
2018-04-11T02:13:57.455Z,86.10
2018-04-11T02:14:57.434Z,86.57
2018-04-11T02:15:57.421Z,87.53
2018-04-11T02:16:57.405Z,87.05
2018-04-11T02:17:57.392Z,86.67
2018-04-11T02:18:57.376Z,87.34
2018-04-11T02:19:57.364Z,87.24
2018-04-11T02:20:57.341Z,87.39
2018-04-11T02:21:57.326Z,87.34
2018-04-11T02:22:57.315Z,87.53
2018-04-11T02:23:57.295Z,87.34
2018-04-11T02:24:57.281Z,87.15
2018-04-11T02:25:57.265Z,86.86
2018-04-11T02:26:57.249Z,86.86
2018-04-11T02:27:57.231Z,87.15
2018-04-11T02:28:57.220Z,86.57
2018-04-11T02:29:57.233Z,86.63
2018-04-11T02:30:57.190Z,87.01
2018-04-11T02:31:57.174Z,87.48
2018-04-11T02:32:57.160Z,87.58
2018-04-11T02:33:57.141Z,86.91
2018-04-11T02:34:57.125Z,86.91
2018-04-11T02:35:57.109Z,86.82
2018-04-11T02:36:57.096Z,86.82
2018-04-11T02:37:57.078Z,87.01
2018-04-11T02:38:57.063Z,87.29
2018-04-11T02:39:57.050Z,87.20
2018-04-11T02:40:57.033Z,87.29
2018-04-11T02:41:57.015Z,87.58
2018-04-11T02:42:57.092Z,88.15
2018-04-11T02:43:56.985Z,88.34
2018-04-11T02:44:56.970Z,88.44
2018-04-11T02:45:56.954Z,88.82
2018-04-11T02:46:56.940Z,88.97
2018-04-11T02:47:56.919Z,89.64
2018-04-11T02:48:56.904Z,90.59
2018-04-11T02:49:56.890Z,90.31
2018-04-11T02:50:56.884Z,90.31
2018-04-11T02:51:56.858Z,90.21
2018-04-11T02:52:56.840Z,90.11
2018-04-11T02:53:56.827Z,89.73
2018-04-11T02:54:56.809Z,89.45
2018-04-11T02:55:56.887Z,89.16
2018-04-11T02:56:56.777Z,89.25
2018-04-11T02:57:56.761Z,89.54
2018-04-11T02:58:56.749Z,89.06
2018-04-11T02:59:56.734Z,89.06
2018-04-11T03:00:56.710Z,88.49
2018-04-11T03:01:56.716Z,88.97
2018-04-11T03:02:56.684Z,88.78
2018-04-11T03:03:56.668Z,89.06
2018-04-11T03:04:56.647Z,88.11
2018-04-11T03:05:56.634Z,88.78
2018-04-11T03:06:56.616Z,88.49
2018-04-11T03:07:56.599Z,88.49
2018-04-11T03:08:56.581Z,88.87
2018-04-11T03:09:56.596Z,88.97
2018-04-11T03:10:56.549Z,88.87
2018-04-11T03:11:56.600Z,88.78
2018-04-11T03:12:56.518Z,88.40
2018-04-11T03:13:56.502Z,88.78
2018-04-11T03:14:56.488Z,89.50
2018-04-11T03:15:56.467Z,89.31
2018-04-11T03:16:56.455Z,90.07
2018-04-11T03:17:56.436Z,90.07
2018-04-11T03:18:56.421Z,90.07
2018-04-11T03:19:56.488Z,90.17
2018-04-11T03:20:56.394Z,89.59
2018-04-11T03:21:56.456Z,89.59
2018-04-11T03:22:56.358Z,89.31
2018-04-11T03:23:56.335Z,89.69
2018-04-11T03:24:56.324Z,89.50
2018-04-11T03:25:56.304Z,89.40
2018-04-11T03:26:56.284Z,89.50
2018-04-11T03:27:56.273Z,89.50
2018-04-11T03:28:56.252Z,89.50
2018-04-11T03:29:56.236Z,89.50
2018-04-11T03:30:56.230Z,90.07
2018-04-11T03:31:56.200Z,89.40
2018-04-11T03:32:56.186Z,90.17
2018-04-11T03:33:56.171Z,89.88
2018-04-11T03:34:56.155Z,90.41
2018-04-11T03:35:56.141Z,90.07
2018-04-11T03:36:56.140Z,90.17
2018-04-11T03:37:56.106Z,90.07
2018-04-11T03:38:56.177Z,90.26
2018-04-11T03:39:56.083Z,89.78
2018-04-11T03:40:56.053Z,89.21
2018-04-11T03:41:56.140Z,89.97
2018-04-11T03:42:56.021Z,89.36
2018-04-11T03:43:56.003Z,89.93
2018-04-11T03:44:55.991Z,90.59
2018-04-11T03:45:55.973Z,90.98
2018-04-11T03:46:55.952Z,91.07
2018-04-11T03:47:55.940Z,91.46
2018-04-11T03:48:55.920Z,90.59
2018-04-11T03:49:55.905Z,90.22
2018-04-11T03:50:55.888Z,90.79
2018-04-11T03:51:55.870Z,91.93
2018-04-11T03:52:55.853Z,91.07
2018-04-11T03:53:55.836Z,90.88
2018-04-11T03:54:55.818Z,90.69
2018-04-11T03:55:55.802Z,90.03
2018-04-11T03:56:55.790Z,90.03
2018-04-11T03:57:55.789Z,90.22
2018-04-11T03:58:55.759Z,90.03
2018-04-11T03:59:55.732Z,89.83
2018-04-11T04:00:55.721Z,90.41
2018-04-11T04:01:55.704Z,89.83
2018-04-11T04:02:55.682Z,90.03
2018-04-11T04:03:55.668Z,89.45
2018-04-11T04:04:55.650Z,89.69
2018-04-11T04:05:55.674Z,89.64
2018-04-11T04:06:55.661Z,88.98
2018-04-11T04:07:55.600Z,89.07
2018-04-11T04:08:55.590Z,89.17
2018-04-11T04:09:55.567Z,89.17
2018-04-11T04:10:55.552Z,89.45
2018-04-11T04:11:55.533Z,89.26
2018-04-11T04:12:55.516Z,89.26
2018-04-11T04:13:55.526Z,89.07
2018-04-11T04:14:55.481Z,88.88
2018-04-11T04:15:55.468Z,89.17
2018-04-11T04:16:55.449Z,89.36
2018-04-11T04:17:55.432Z,89.64
2018-04-11T04:18:55.414Z,89.07
2018-04-11T04:19:55.399Z,89.26
2018-04-11T04:20:55.381Z,89.17
2018-04-11T04:21:55.367Z,89.45
2018-04-11T04:22:55.347Z,90.03
2018-04-11T04:23:55.329Z,90.12
2018-04-11T04:24:55.462Z,90.03
2018-04-11T04:25:55.296Z,89.45
2018-04-11T04:26:55.278Z,89.36
2018-04-11T04:27:55.301Z,89.45
2018-04-11T04:28:55.249Z,89.45
2018-04-11T04:29:55.228Z,89.36
2018-04-11T04:30:55.214Z,88.78
2018-04-11T04:31:55.195Z,88.69
2018-04-11T04:32:55.177Z,88.98
2018-04-11T04:33:55.172Z,88.98
2018-04-11T04:34:55.146Z,89.40
2018-04-11T04:35:55.127Z,89.36
2018-04-11T04:36:55.108Z,89.83
2018-04-11T04:37:55.093Z,89.26
2018-04-11T04:38:55.075Z,88.88
2018-04-11T04:39:55.057Z,88.88
2018-04-11T04:40:55.043Z,88.98
2018-04-11T04:41:55.025Z,88.69
2018-04-11T04:42:55.004Z,88.69
2018-04-11T04:43:55.065Z,88.59
2018-04-11T04:44:54.972Z,88.78
2018-04-11T04:45:54.956Z,88.98
2018-04-11T04:46:55.014Z,88.50
2018-04-11T04:47:54.922Z,88.64
2018-04-11T04:48:54.904Z,89.40
2018-04-11T04:49:54.887Z,89.40
2018-04-11T04:50:54.877Z,89.31
2018-04-11T04:51:54.852Z,89.89
2018-04-11T04:52:54.835Z,90.08
2018-04-11T04:53:54.821Z,89.89
2018-04-11T04:54:54.826Z,89.79
2018-04-11T04:55:54.783Z,89.69
2018-04-11T04:56:54.765Z,90.08
2018-04-11T04:57:54.751Z,90.45
2018-04-11T04:58:54.738Z,90.64
2018-04-11T04:59:54.715Z,90.74
2018-04-11T05:00:54.701Z,91.13
2018-04-11T05:01:54.680Z,90.55
2018-04-11T05:02:54.663Z,90.84
2018-04-11T05:03:54.646Z,91.84
2018-04-11T05:04:54.631Z,91.55
2018-04-11T05:05:54.619Z,92.08
2018-04-11T05:06:54.594Z,91.60
2018-04-11T05:07:54.579Z,91.46
2018-04-11T05:08:54.564Z,91.84
2018-04-11T05:09:54.541Z,90.84
2018-04-11T05:10:54.538Z,90.45
2018-04-11T05:11:54.509Z,90.84
2018-04-11T05:12:54.490Z,90.36
2018-04-11T05:13:54.487Z,89.98
2018-04-11T05:14:54.459Z,90.17
2018-04-11T05:15:54.449Z,89.50
2018-04-11T05:16:54.422Z,89.60
2018-04-11T05:17:54.415Z,89.98
2018-04-11T05:18:54.396Z,89.98
2018-04-11T05:19:54.368Z,90.45
2018-04-11T05:20:54.369Z,90.45
2018-04-11T05:21:54.340Z,89.89
2018-04-11T05:22:54.317Z,89.50
2018-04-11T05:23:54.314Z,89.50
2018-04-11T05:24:54.280Z,89.22
2018-04-11T05:25:54.267Z,89.22
2018-04-11T05:26:54.247Z,89.36
2018-04-11T05:27:54.230Z,91.27
2018-04-11T05:28:54.212Z,91.17
2018-04-11T05:29:54.202Z,90.93
2018-04-11T05:30:54.176Z,89.79
2018-04-11T05:31:54.158Z,89.50
2018-04-11T05:32:54.204Z,88.74
2018-04-11T05:33:54.126Z,88.07
2018-04-11T05:34:54.106Z,88.17
2018-04-11T05:35:54.098Z,88.78
2018-04-11T05:36:54.081Z,88.31
2018-04-11T05:37:54.060Z,87.64
2018-04-11T05:38:54.061Z,87.64
2018-04-11T05:39:54.031Z,87.07
2018-04-11T05:40:54.007Z,87.26
2018-04-11T05:41:53.990Z,86.69
2018-04-11T05:42:53.970Z,86.11
2018-04-11T05:43:53.969Z,87.83
2018-04-11T05:44:53.936Z,87.60
2018-04-11T05:45:53.918Z,87.88
2018-04-11T05:46:53.904Z,87.45
2018-04-11T05:47:53.892Z,87.74
2018-04-11T05:48:53.871Z,86.69
2018-04-11T05:49:53.854Z,86.69
2018-04-11T05:50:53.832Z,86.11
2018-04-11T05:51:53.814Z,85.35
2018-04-11T05:52:53.805Z,85.77
2018-04-11T05:53:53.784Z,85.21
2018-04-11T05:54:53.767Z,85.11
2018-04-11T05:55:53.752Z,85.01
2018-04-11T05:56:53.735Z,84.72
2018-04-11T05:57:53.720Z,84.34
2018-04-11T05:58:53.702Z,83.77
2018-04-11T05:59:53.697Z,84.69
2018-04-11T06:00:53.678Z,86.30
2018-04-11T06:01:53.654Z,86.59
2018-04-11T06:02:53.644Z,86.30
2018-04-11T06:03:53.621Z,85.35
2018-04-11T06:04:53.605Z,84.92
2018-04-11T06:05:53.589Z,84.63
2018-04-11T06:06:53.570Z,84.53
2018-04-11T06:07:53.554Z,83.39
2018-04-11T06:08:53.543Z,83.48
2018-04-11T06:09:53.522Z,83.43
2018-04-11T06:10:53.506Z,82.91
2018-04-11T06:11:53.498Z,82.82
2018-04-11T06:12:53.474Z,82.76
2018-04-11T06:13:53.460Z,82.09
2018-04-11T06:14:53.443Z,81.09
2018-04-11T06:15:53.494Z,79.65
2018-04-11T06:16:53.429Z,80.04
2018-04-11T06:17:53.398Z,79.65
2018-04-11T06:18:53.395Z,80.27
2018-04-11T06:19:53.365Z,78.39
2018-04-11T06:20:53.356Z,76.10
2018-04-11T06:21:53.340Z,76.77
2018-04-11T06:22:53.380Z,75.27
2018-04-11T06:23:53.308Z,74.13
2018-04-11T06:24:53.292Z,74.07
2018-04-11T06:25:53.279Z,72.25
2018-04-11T06:26:53.262Z,72.41
2018-04-11T06:27:53.248Z,74.48
2018-04-11T06:28:53.234Z,75.62
2018-04-11T06:29:53.218Z,75.81
2018-04-11T06:30:53.208Z,75.34
2018-04-11T06:31:53.206Z,75.52
2018-04-11T06:32:53.179Z,74.76
2018-04-11T06:33:53.175Z,75.81
2018-04-11T06:34:53.236Z,75.47
2018-04-11T06:35:53.141Z,74.09
2018-04-11T06:36:53.128Z,74.57
2018-04-11T06:37:53.112Z,75.49
2018-04-11T06:38:53.144Z,77.40
2018-04-11T06:39:53.110Z,77.63
2018-04-11T06:40:53.072Z,76.48
2018-04-11T06:41:53.064Z,76.92
2018-04-11T06:42:53.118Z,77.21
2018-04-11T06:43:53.037Z,77.21
2018-04-11T06:44:53.023Z,78.36
2018-04-11T06:45:53.013Z,77.92
2018-04-11T06:46:53.015Z,77.15
2018-04-11T06:47:52.987Z,77.06
2018-04-11T06:48:52.971Z,76.39
2018-04-11T06:49:52.957Z,76.10
2018-04-11T06:50:52.941Z,76.73
2018-04-11T06:51:52.929Z,76.82
2018-04-11T06:52:52.917Z,77.84
2018-04-11T06:53:52.908Z,79.02
2018-04-11T06:54:52.886Z,78.74
2018-04-11T06:55:52.870Z,77.69
2018-04-11T06:56:52.861Z,76.77
2018-04-11T06:57:52.851Z,76.82
2018-04-11T06:58:52.892Z,77.59
2018-04-11T06:59:52.814Z,77.59
2018-04-11T07:00:52.808Z,77.78
2018-04-11T07:01:52.796Z,77.21
2018-04-11T07:02:52.777Z,76.48
2018-04-11T07:03:52.759Z,77.21
2018-04-11T07:04:52.767Z,77.94
2018-04-11T07:05:52.740Z,77.87
2018-04-11T07:06:52.716Z,77.69
2018-04-11T07:07:52.704Z,77.55
2018-04-11T07:08:52.687Z,77.69
2018-04-11T07:09:52.677Z,77.01
2018-04-11T07:10:52.657Z,77.11
2018-04-11T07:11:52.642Z,77.21
2018-04-11T07:12:52.628Z,77.01
2018-04-11T07:13:52.617Z,76.82
2018-04-11T07:14:52.749Z,77.21
2018-04-11T07:15:52.588Z,76.64
2018-04-11T07:16:52.575Z,76.39
2018-04-11T07:17:52.606Z,75.81
2018-04-11T07:18:52.561Z,75.27
2018-04-11T07:19:52.545Z,74.51
2018-04-11T07:20:52.511Z,73.50
2018-04-11T07:21:52.496Z,72.06
2018-04-11T07:22:52.481Z,71.04
2018-04-11T07:23:52.468Z,70.66
2018-04-11T07:24:52.463Z,69.38
2018-04-11T07:25:52.442Z,71.48
2018-04-11T07:26:52.427Z,72.60
2018-04-11T07:27:52.411Z,72.73
2018-04-11T07:28:52.401Z,71.14
2018-04-11T07:29:52.391Z,69.45
2018-04-11T07:30:52.371Z,68.14
2018-04-11T07:31:52.355Z,66.67
2018-04-11T07:32:52.342Z,66.42
2018-04-11T07:33:52.343Z,65.39
2018-04-11T07:34:52.312Z,64.53
2018-04-11T07:35:52.327Z,64.53
2018-04-11T07:36:52.289Z,66.45
2018-04-11T07:37:52.275Z,69.29
2018-04-11T07:38:52.274Z,70.62
2018-04-11T07:39:52.250Z,70.05
2018-04-11T07:40:52.235Z,71.01
2018-04-11T07:41:52.290Z,71.01
2018-04-11T07:42:52.209Z,70.37
2018-04-11T07:43:52.198Z,68.59
2018-04-11T07:44:52.186Z,68.49
2018-04-11T07:45:52.171Z,67.47
2018-04-11T07:46:52.160Z,65.97
2018-04-11T07:47:52.150Z,65.59
2018-04-11T07:48:52.138Z,64.76
2018-04-11T07:49:52.123Z,63.42
2018-04-11T07:50:52.111Z,61.81
2018-04-11T07:51:52.104Z,61.08
2018-04-11T07:52:52.090Z,59.47
2018-04-11T07:53:52.095Z,60.18
2018-04-11T07:54:52.067Z,61.59
2018-04-11T07:55:52.058Z,63.45
2018-04-11T07:56:52.053Z,65.55
2018-04-11T07:57:52.043Z,66.77
2018-04-11T07:58:52.023Z,67.34
2018-04-11T07:59:52.047Z,66.61
2018-04-11T08:00:52.005Z,65.36
2018-04-11T08:01:51.990Z,64.79
2018-04-11T08:02:51.983Z,65.01
2018-04-11T08:03:51.970Z,63.99
2018-04-11T08:04:51.959Z,63.38
2018-04-11T08:05:51.947Z,64.79
2018-04-11T08:06:51.938Z,64.53
2018-04-11T08:07:51.927Z,63.22
2018-04-11T08:08:51.916Z,62.19
2018-04-11T08:09:51.916Z,61.75
2018-04-11T08:10:51.939Z,60.11
2018-04-11T08:11:51.887Z,61.21
2018-04-11T08:12:51.877Z,62.45
2018-04-11T08:13:51.872Z,61.55
2018-04-11T08:14:51.856Z,60.50
2018-04-11T08:15:51.846Z,59.83
2018-04-11T08:16:51.835Z,60.40
2018-04-11T08:17:51.828Z,60.05
2018-04-11T08:18:51.829Z,58.99
2018-04-11T08:19:51.805Z,58.64
2018-04-11T08:20:51.807Z,57.42
2018-04-11T08:21:51.784Z,57.13
2018-04-11T08:22:51.776Z,56.65
2018-04-11T08:23:51.772Z,56.55
2018-04-11T08:24:51.759Z,56.52
2018-04-11T08:25:51.753Z,57.00
2018-04-11T08:26:51.740Z,58.03
2018-04-11T08:27:51.739Z,58.45
2018-04-11T08:28:51.735Z,57.97
2018-04-11T08:29:51.719Z,57.00
2018-04-11T08:30:51.709Z,56.65
2018-04-11T08:31:51.751Z,57.90
2018-04-11T08:32:51.693Z,58.77
2018-04-11T08:33:51.685Z,58.48
2018-04-11T08:34:51.703Z,58.70
2018-04-11T08:35:51.681Z,60.08
2018-04-11T08:36:51.664Z,62.33
2018-04-11T08:37:51.659Z,62.87
2018-04-11T08:38:51.655Z,61.05
2018-04-11T08:39:51.643Z,61.24
2018-04-11T08:40:51.634Z,60.50
2018-04-11T08:41:51.635Z,59.99
2018-04-11T08:42:51.640Z,57.80
2018-04-11T08:43:51.612Z,56.68
2018-04-11T08:44:51.644Z,57.84
2018-04-11T08:45:51.608Z,58.96
2018-04-11T08:46:51.588Z,58.64
2018-04-11T08:47:51.586Z,57.13
2018-04-11T08:48:51.575Z,56.04
2018-04-11T08:49:51.564Z,57.29
2018-04-11T08:50:51.558Z,55.88
2018-04-11T08:51:51.552Z,56.20
2018-04-11T08:52:51.578Z,55.13
2018-04-11T08:53:51.536Z,54.46
2018-04-11T08:54:51.535Z,54.56
2018-04-11T08:55:51.520Z,53.59
2018-04-11T08:56:51.512Z,53.62
2018-04-11T08:57:51.512Z,53.27
2018-04-11T08:58:51.496Z,52.27
2018-04-11T08:59:51.492Z,53.72
2018-04-11T09:00:51.533Z,53.31
2018-04-11T09:01:51.476Z,55.46
2018-04-11T09:02:51.480Z,57.93
2018-04-11T09:03:51.461Z,58.03
2018-04-11T09:04:51.455Z,56.14
2018-04-11T09:05:51.446Z,55.59
2018-04-11T09:06:51.440Z,55.88
2018-04-11T09:07:51.430Z,55.11
2018-04-11T09:08:51.424Z,56.21
2018-04-11T09:09:51.419Z,56.45
2018-04-11T09:10:51.411Z,55.11
2018-04-11T09:11:51.405Z,55.59
2018-04-11T09:12:51.398Z,56.07
2018-04-11T09:13:51.576Z,54.00
2018-04-11T09:14:51.382Z,54.17
2018-04-11T09:15:51.383Z,53.96
2018-04-11T09:16:51.433Z,56.14
2018-04-11T09:17:51.368Z,56.52
2018-04-11T09:18:51.359Z,55.33
2018-04-11T09:19:51.380Z,54.08
2018-04-11T09:20:51.372Z,54.56
2018-04-11T09:21:51.350Z,54.10
2018-04-11T09:22:51.348Z,53.48
2018-04-11T09:23:51.345Z,51.87
2018-04-11T09:24:51.331Z,49.96
2018-04-11T09:25:51.328Z,49.48
2018-04-11T09:26:51.323Z,49.58
2018-04-11T09:27:51.318Z,49.17
2018-04-11T09:28:51.318Z,51.62
2018-04-11T09:29:51.310Z,52.71
2018-04-11T09:30:51.308Z,51.75
2018-04-11T09:31:51.383Z,51.26
2018-04-11T09:32:51.299Z,52.01
2018-04-11T09:33:51.296Z,51.84
2018-04-11T09:34:51.304Z,50.13
2018-04-11T09:35:51.306Z,49.68
2018-04-11T09:36:51.282Z,49.29
2018-04-11T09:37:51.278Z,49.51
2018-04-11T09:38:51.281Z,47.70
2018-04-11T09:39:51.272Z,48.74
2018-04-11T09:40:51.267Z,48.44
2018-04-11T09:41:51.300Z,48.16
2018-04-11T09:42:51.263Z,47.89
2018-04-11T09:43:51.257Z,46.85
2018-04-11T09:44:51.272Z,45.93
2018-04-11T09:45:51.253Z,44.87
2018-04-11T09:46:51.248Z,45.23
2018-04-11T09:47:51.267Z,47.22
2018-04-11T09:48:51.248Z,47.67
2018-04-11T09:49:51.254Z,47.77
2018-04-11T09:50:51.238Z,47.22
2018-04-11T09:51:51.255Z,47.02
2018-04-11T09:52:51.242Z,47.02
2018-04-11T09:53:51.235Z,46.64
2018-04-11T09:54:51.237Z,45.91
2018-04-11T09:55:51.236Z,45.98
2018-04-11T09:56:51.230Z,45.42
2018-04-11T09:57:51.230Z,45.91
2018-04-11T09:58:51.231Z,47.96
2018-04-11T09:59:51.228Z,47.67
2018-04-11T10:00:51.336Z,48.03
2018-04-11T10:01:51.227Z,50.11
2018-04-11T10:02:51.233Z,52.40
2018-04-11T10:03:51.224Z,51.12
2018-04-11T10:04:51.225Z,49.32
2018-04-11T10:05:51.225Z,47.38
2018-04-11T10:06:51.282Z,46.95
2018-04-11T10:07:51.224Z,46.20
2018-04-11T10:08:51.229Z,45.79
2018-04-11T10:09:51.230Z,47.22
2018-04-11T10:10:51.287Z,46.49
2018-04-11T10:11:51.222Z,45.98
2018-04-11T10:12:51.227Z,45.81
2018-04-11T10:13:51.221Z,46.00
2018-04-11T10:14:51.230Z,45.79
2018-04-11T10:15:51.223Z,46.17
2018-04-11T10:16:51.217Z,47.02
2018-04-11T10:17:51.222Z,46.66
2018-04-11T10:18:51.218Z,45.81
2018-04-11T10:19:51.217Z,47.87
2018-04-11T10:20:51.216Z,49.17
2018-04-11T10:21:51.216Z,50.42
2018-04-11T10:22:51.216Z,50.45
2018-04-11T10:23:51.229Z,48.76
2018-04-11T10:24:51.244Z,48.18
2018-04-11T10:25:51.217Z,47.24
2018-04-11T10:26:51.219Z,46.85
2018-04-11T10:27:51.216Z,46.20
2018-04-11T10:28:51.268Z,44.77
2018-04-11T10:29:51.216Z,44.89
2018-04-11T10:30:51.216Z,44.67
2018-04-11T10:31:51.227Z,44.40
2018-04-11T10:32:51.227Z,43.34
2018-04-11T10:33:51.217Z,43.92
2018-04-11T10:34:51.219Z,46.06
2018-04-11T10:35:51.229Z,47.80
2018-04-11T10:36:51.221Z,47.02
2018-04-11T10:37:51.223Z,50.21
2018-04-11T10:38:51.226Z,50.78
2018-04-11T10:39:51.224Z,50.23
2018-04-11T10:40:51.220Z,50.35
2018-04-11T10:41:51.368Z,49.58
2018-04-11T10:42:51.214Z,50.16
2018-04-11T10:43:51.211Z,52.95
2018-04-11T10:44:51.216Z,54.49
2018-04-11T10:45:51.210Z,55.04
2018-04-11T10:46:51.213Z,56.00
2018-04-11T10:47:51.208Z,56.58
2018-04-11T10:48:51.202Z,56.00
2018-04-11T10:49:51.199Z,55.55
2018-04-11T10:50:51.194Z,54.78
2018-04-11T10:51:51.187Z,55.81
2018-04-11T10:52:51.243Z,55.43
2018-04-11T10:53:51.178Z,55.74
2018-04-11T10:54:51.242Z,55.65
2018-04-11T10:55:51.180Z,55.81
2018-04-11T10:56:51.162Z,57.03
2018-04-11T10:57:51.157Z,57.06
2018-04-11T10:58:51.149Z,56.20
2018-04-11T10:59:51.155Z,54.74
2018-04-11T11:00:51.194Z,52.64
2018-04-11T11:01:51.139Z,51.56
2018-04-11T11:02:51.126Z,52.71
2018-04-11T11:03:51.121Z,54.32
2018-04-11T11:04:51.118Z,54.39
2018-04-11T11:05:51.127Z,55.93
2018-04-11T11:06:51.106Z,55.43
2018-04-11T11:07:51.130Z,58.09
2018-04-11T11:08:51.086Z,59.12
2018-04-11T11:09:51.078Z,60.14
2018-04-11T11:10:51.176Z,61.01
2018-04-11T11:11:51.067Z,61.30
2018-04-11T11:12:51.053Z,59.79
2018-04-11T11:13:51.053Z,60.08
2018-04-11T11:14:51.046Z,58.57
2018-04-11T11:15:51.032Z,58.12
2018-04-11T11:16:51.029Z,57.45
2018-04-11T11:17:51.015Z,56.99
2018-04-11T11:18:51.004Z,56.15
2018-04-11T11:19:51.004Z,54.35
2018-04-11T11:20:50.993Z,52.47
2018-04-11T11:21:50.980Z,51.12
2018-04-11T11:22:50.991Z,52.91
2018-04-11T11:23:50.964Z,52.45
2018-04-11T11:24:50.964Z,53.29
2018-04-11T11:25:50.949Z,53.94
2018-04-11T11:26:50.954Z,54.25
2018-04-11T11:27:50.939Z,54.44
2018-04-11T11:28:50.928Z,54.03
2018-04-11T11:29:50.927Z,54.83
2018-04-11T11:30:50.923Z,52.93
2018-04-11T11:31:50.984Z,51.82
2018-04-11T11:32:50.904Z,50.76
2018-04-11T11:33:50.898Z,50.28
2018-04-11T11:34:50.895Z,50.09
2018-04-11T11:35:50.885Z,50.45
2018-04-11T11:36:50.879Z,50.64
2018-04-11T11:37:50.886Z,51.20
2018-04-11T11:38:50.867Z,51.75
2018-04-11T11:39:50.864Z,53.09
2018-04-11T11:40:50.856Z,52.97
2018-04-11T11:41:50.848Z,54.13
2018-04-11T11:42:50.844Z,54.20
2018-04-11T11:43:50.836Z,55.43
2018-04-11T11:44:50.925Z,55.74
2018-04-11T11:45:50.840Z,55.81
2018-04-11T11:46:50.813Z,57.13
2018-04-11T11:47:50.809Z,57.13
2018-04-11T11:48:50.814Z,57.45
2018-04-11T11:49:50.797Z,56.67
2018-04-11T11:50:50.783Z,56.67
2018-04-11T11:51:50.774Z,58.18
2018-04-11T11:52:50.774Z,59.08
2018-04-11T11:53:50.766Z,58.89
2018-04-11T11:54:50.765Z,59.27
2018-04-11T11:55:50.740Z,59.05
2018-04-11T11:56:50.732Z,59.82
2018-04-11T11:57:50.819Z,59.92
2018-04-11T11:58:50.713Z,60.01
2018-04-11T11:59:50.709Z,60.39
2018-04-11T12:00:50.708Z,60.39
2018-04-11T12:01:50.686Z,60.59
2018-04-11T12:02:50.704Z,60.30
2018-04-11T12:03:50.672Z,60.56
2018-04-11T12:04:50.659Z,61.43
2018-04-11T12:05:50.657Z,61.23
2018-04-11T12:06:50.640Z,60.30
2018-04-11T12:07:50.640Z,59.37
2018-04-11T12:08:50.619Z,57.76
2018-04-11T12:09:50.611Z,58.02
2018-04-11T12:10:50.599Z,58.98
2018-04-11T12:11:50.653Z,59.37
2018-04-11T12:12:50.583Z,59.44
2018-04-11T12:13:50.577Z,59.44
2018-04-11T12:14:50.562Z,60.30
2018-04-11T12:15:50.548Z,60.42
2018-04-11T12:16:50.539Z,59.08
2018-04-11T12:17:50.540Z,59.44
2018-04-11T12:18:50.521Z,59.89
2018-04-11T12:19:50.515Z,60.75
2018-04-11T12:20:50.503Z,61.61
2018-04-11T12:21:50.512Z,62.64
2018-04-11T12:22:50.479Z,62.07
2018-04-11T12:23:50.467Z,62.55
2018-04-11T12:24:50.518Z,62.90
2018-04-11T12:25:50.447Z,63.79
2018-04-11T12:26:50.445Z,63.22
2018-04-11T12:27:50.427Z,64.05
2018-04-11T12:28:50.417Z,63.70
2018-04-11T12:29:50.408Z,63.32
2018-04-11T12:30:50.404Z,64.09
2018-04-11T12:31:50.382Z,63.51
2018-04-11T12:32:50.375Z,63.86
2018-04-11T12:33:50.364Z,64.15
2018-04-11T12:34:50.359Z,64.09
2018-04-11T12:35:50.338Z,63.89
2018-04-11T12:36:50.331Z,63.32
2018-04-11T12:37:50.427Z,63.12
2018-04-11T12:38:50.307Z,63.12
2018-04-11T12:39:50.296Z,63.12
2018-04-11T12:40:50.286Z,62.68
2018-04-11T12:41:50.275Z,61.71
2018-04-11T12:42:50.262Z,61.43
2018-04-11T12:43:50.250Z,62.64
2018-04-11T12:44:50.244Z,63.09
2018-04-11T12:45:50.228Z,63.32
2018-04-11T12:46:50.218Z,62.96
2018-04-11T12:47:50.207Z,61.55
2018-04-11T12:48:50.194Z,60.30
2018-04-11T12:49:50.187Z,60.01
2018-04-11T12:50:50.291Z,60.59
2018-04-11T12:51:50.176Z,60.01
2018-04-11T12:52:50.155Z,61.33